Time;durP1;ratioP1;P1;durP2;ratioP2;P2;SDS_P1;SDS_P2;PMS_P1;PMS_P2;Temp;Humidity;BMP_temperature;BMP_pressure;BME280_temperature;BME280_humidity;BME280_pressure;Samples;Min_cycle;Max_cycle;Signal;HPM_P1;HPM_P2
2022/10/11 00:00:20;;;;;;;6.30;5.10;;;;;;;11.19;62.27;97046.19;104998;1306;22968;-85
2022/10/11 00:03:13;;;;;;;8.40;5.90;;;;;;;11.17;62.26;97041.15;104986;1285;22468;-85
2022/10/11 00:05:46;;;;;;;7.90;5.10;;;;;;;11.14;62.25;97035.60;104940;1300;22604;-85
2022/10/11 00:08:18;;;;;;;7.90;4.80;;;;;;;11.10;62.35;97030.92;104984;1288;22471;-85
2022/10/11 00:10:58;;;;;;;6.10;5.20;;;;;;;11.08;62.57;97031.89;104965;1297;22470;-85
2022/10/11 00:13:29;;;;;;;9.20;5.60;;;;;;;11.06;62.55;97035.83;104997;1303;24248;-85
2022/10/11 00:16:01;;;;;;;7.80;5.20;;;;;;;11.04;62.61;97029.31;104935;1294;22533;-85
2022/10/11 00:18:32;;;;;;;7.40;4.80;;;;;;;11.02;62.78;97032.23;104958;1301;25268;-85
2022/10/11 00:21:05;;;;;;;8.00;5.50;;;;;;;10.98;62.88;97034.69;104950;1298;22512;-85
2022/10/11 00:23:36;;;;;;;9.00;5.80;;;;;;;10.98;62.83;97035.17;104987;1305;22464;-84
2022/10/11 00:26:09;;;;;;;9.10;5.20;;;;;;;11.02;62.82;97037.86;104901;1304;27624;-85
2022/10/11 00:28:43;;;;;;;7.30;5.60;;;;;;;11.03;62.87;97039.82;104899;1307;22464;-85
2022/10/11 00:31:15;;;;;;;7.80;5.30;;;;;;;11.02;62.84;97043.01;104922;1299;23613;-84
2022/10/11 00:33:47;;;;;;;7.70;4.90;;;;;;;11.04;62.74;97041.77;104945;1308;22498;-85
2022/10/11 00:36:18;;;;;;;5.70;3.60;;;;;;;11.08;62.69;97045.20;104882;1307;22470;-85
2022/10/11 00:38:49;;;;;;;6.50;5.00;;;;;;;11.13;62.46;97043.29;104966;1307;22999;-85
2022/10/11 00:41:21;;;;;;;8.00;5.40;;;;;;;11.19;62.34;97043.52;104958;1301;22475;-85
2022/10/11 00:44:13;;;;;;;6.60;5.10;;;;;;;11.20;62.29;97042.09;104929;1306;22603;-85
2022/10/11 00:46:49;;;;;;;7.20;5.50;;;;;;;11.23;62.20;97043.23;104906;1304;25274;-85
2022/10/11 00:49:25;;;;;;;7.90;5.00;;;;;;;11.22;62.25;97040.75;104924;1301;22475;-85
2022/10/11 00:52:00;;;;;;;8.50;5.40;;;;;;;11.21;62.20;97040.76;104969;1306;24264;-85
2022/10/11 00:54:34;;;;;;;6.40;4.50;;;;;;;11.19;62.16;97043.05;104934;1301;22463;-83
2022/10/11 00:57:10;;;;;;;10.80;4.70;;;;;;;11.20;62.19;97040.77;104952;1292;22468;-85
2022/10/11 00:59:45;;;;;;;6.20;4.40;;;;;;;11.21;62.21;97036.14;104922;1291;22480;-85
2022/10/11 01:02:17;;;;;;;6.80;4.70;;;;;;;11.22;62.30;97043.30;104945;1310;22480;-85
2022/10/11 01:04:49;;;;;;;8.80;5.00;;;;;;;11.21;62.21;97039.27;104877;1307;22472;-85
2022/10/11 01:07:21;;;;;;;7.60;4.90;;;;;;;11.23;62.22;97042.08;104954;1291;22491;-85
2022/10/11 01:09:52;;;;;;;7.40;5.30;;;;;;;11.23;62.11;97043.61;104956;1297;22626;-85
2022/10/11 01:12:26;;;;;;;7.10;5.00;;;;;;;11.24;62.07;97044.24;104952;1301;27179;-85
2022/10/11 01:15:14;;;;;;;6.30;4.50;;;;;;;11.22;62.17;97048.13;104889;1307;25365;-85
2022/10/11 01:17:54;;;;;;;9.40;5.10;;;;;;;11.20;62.18;97047.88;104970;1310;22602;-85
2022/10/11 01:20:45;;;;;;;7.50;5.50;;;;;;;11.20;62.28;97043.21;104925;1308;22491;-85
2022/10/11 01:23:53;;;;;;;7.80;5.30;;;;;;;11.16;62.38;97044.77;104935;1309;22473;-85
2022/10/11 01:26:43;;;;;;;7.00;5.10;;;;;;;11.12;62.45;97046.15;104903;1308;24311;-85
2022/10/11 01:29:25;;;;;;;8.10;5.00;;;;;;;11.10;62.64;97048.64;104935;1310;22502;-85
2022/10/11 01:32:02;;;;;;;7.50;5.40;;;;;;;11.07;62.80;97047.44;104964;1307;22475;-85
2022/10/11 01:34:41;;;;;;;6.00;4.80;;;;;;;11.03;62.81;97050.91;104890;1293;26387;-84
2022/10/11 01:37:19;;;;;;;9.00;5.40;;;;;;;11.00;63.10;97048.16;104929;1309;22469;-85
2022/10/11 01:39:57;;;;;;;6.40;5.50;;;;;;;10.95;63.26;97051.23;104964;1300;22463;-85
2022/10/11 01:42:30;;;;;;;8.50;5.70;;;;;;;10.92;63.41;97048.91;104924;1301;22449;-85
2022/10/11 01:45:02;;;;;;;8.50;5.60;;;;;;;10.92;63.56;97051.30;104886;1310;22481;-85
2022/10/11 01:47:33;;;;;;;8.50;5.90;;;;;;;10.89;63.75;97049.04;104921;1302;24286;-85
2022/10/11 01:50:04;;;;;;;8.10;5.40;;;;;;;10.86;64.01;97051.06;104960;1310;22536;-85
2022/10/11 01:52:43;;;;;;;6.70;5.10;;;;;;;10.86;64.09;97054.98;104953;1310;22478;-85
2022/10/11 01:55:25;;;;;;;6.90;5.30;;;;;;;10.83;64.10;97053.98;104869;1300;25216;-85
2022/10/11 01:58:12;;;;;;;7.70;5.50;;;;;;;10.81;64.09;97056.52;104882;1308;24257;-85
2022/10/11 02:00:52;;;;;;;6.50;4.90;;;;;;;10.77;64.32;97055.36;104865;1306;24803;-85
2022/10/11 02:03:33;;;;;;;7.50;5.20;;;;;;;10.73;64.47;97063.07;104870;1292;22489;-85
2022/10/11 02:06:12;;;;;;;7.30;5.40;;;;;;;10.71;64.59;97058.95;104844;1303;22507;-85
2022/10/11 02:08:53;;;;;;;7.50;5.50;;;;;;;10.70;64.63;97062.00;104832;1296;22476;-85
2022/10/11 02:11:28;;;;;;;10.90;5.30;;;;;;;10.68;64.59;97063.64;104824;1308;22472;-85
2022/10/11 02:14:04;;;;;;;7.00;5.10;;;;;;;10.65;64.68;97062.86;104863;1310;22479;-85
2022/10/11 02:16:41;;;;;;;7.10;5.00;;;;;;;10.61;64.97;97060.38;104819;1307;23141;-85
2022/10/11 02:19:17;;;;;;;8.40;5.30;;;;;;;10.59;65.11;97057.36;104862;1298;23029;-85
2022/10/11 02:21:57;;;;;;;8.20;5.40;;;;;;;10.55;65.21;97060.21;104859;1301;25516;-84
2022/10/11 02:24:32;;;;;;;8.80;5.40;;;;;;;10.54;65.42;97058.98;104864;1302;22643;-85
2022/10/11 02:27:05;;;;;;;8.30;5.30;;;;;;;10.55;65.41;97061.75;104910;1309;22501;-85
2022/10/11 02:29:39;;;;;;;7.70;5.40;;;;;;;10.54;65.47;97061.70;105024;1299;24346;-84
2022/10/11 02:32:13;;;;;;;7.60;5.10;;;;;;;10.51;65.54;97064.52;104956;1307;22467;-85
2022/10/11 02:34:50;;;;;;;8.70;5.40;;;;;;;10.47;65.60;97068.23;104900;1310;22930;-84
2022/10/11 02:37:30;;;;;;;7.80;5.70;;;;;;;10.40;65.63;97070.82;104870;1309;25315;-84
2022/10/11 02:40:07;;;;;;;8.20;5.10;;;;;;;10.37;65.67;97072.84;104861;1307;26561;-84
2022/10/11 02:42:43;;;;;;;7.00;5.10;;;;;;;10.34;65.69;97073.80;104874;1300;24446;-85
2022/10/11 02:45:18;;;;;;;10.70;5.70;;;;;;;10.33;65.92;97078.30;104842;1306;25021;-84
2022/10/11 02:47:50;;;;;;;6.70;5.20;;;;;;;10.32;66.11;97079.05;104957;1308;22467;-85
2022/10/11 02:50:21;;;;;;;7.80;5.10;;;;;;;10.29;66.33;97077.88;104959;1313;22517;-85
2022/10/11 02:52:52;;;;;;;8.20;5.20;;;;;;;10.27;66.53;97080.24;104914;1291;25358;-85
2022/10/11 02:55:24;;;;;;;8.10;5.10;;;;;;;10.29;66.68;97082.72;104909;1310;22475;-85
2022/10/11 02:57:54;;;;;;;7.80;5.20;;;;;;;10.29;66.62;97082.66;104952;1310;22494;-85
2022/10/11 03:00:26;;;;;;;7.20;5.10;;;;;;;10.30;66.75;97084.35;104914;1310;22479;-85
2022/10/11 03:02:57;;;;;;;6.80;5.30;;;;;;;10.31;66.72;97084.35;104903;1298;22473;-85
2022/10/11 03:05:39;;;;;;;8.30;6.00;;;;;;;10.29;66.88;97088.65;104883;1307;22963;-84
2022/10/11 03:08:11;;;;;;;8.80;5.90;;;;;;;10.26;67.02;97084.64;104945;1292;22466;-85
2022/10/11 03:10:43;;;;;;;7.10;5.80;;;;;;;10.23;67.32;97084.06;104973;1299;22467;-84
2022/10/11 03:13:14;;;;;;;7.20;5.70;;;;;;;10.23;67.30;97081.36;104942;1307;25261;-84
2022/10/11 03:15:47;;;;;;;6.30;5.50;;;;;;;10.23;67.40;97083.64;104875;1304;22468;-84
2022/10/11 03:18:19;;;;;;;8.30;5.70;;;;;;;10.22;67.53;97087.57;104914;1307;22482;-84
2022/10/11 03:20:50;;;;;;;7.50;5.90;;;;;;;10.22;67.53;97090.91;104937;1301;25228;-84
2022/10/11 03:23:21;;;;;;;7.50;5.80;;;;;;;10.22;67.62;97086.92;104939;1300;22482;-85
2022/10/11 03:25:55;;;;;;;8.00;5.60;;;;;;;10.23;67.78;97091.55;104881;1301;22552;-85
2022/10/11 03:28:26;;;;;;;8.50;5.80;;;;;;;10.22;67.84;97093.60;104955;1306;22513;-84
2022/10/11 03:30:58;;;;;;;10.20;6.20;;;;;;;10.23;67.93;97096.58;104914;1297;24319;-85
2022/10/11 03:33:29;;;;;;;8.30;5.90;;;;;;;10.28;67.93;97098.45;104896;1291;22631;-85
2022/10/11 03:36:00;;;;;;;10.40;6.20;;;;;;;10.30;67.96;97099.02;104883;1311;25437;-85
2022/10/11 03:38:31;;;;;;;7.40;5.30;;;;;;;10.31;67.94;97101.15;104888;1297;22461;-85
2022/10/11 03:41:03;;;;;;;8.10;5.80;;;;;;;10.33;67.95;97102.52;104925;1313;22463;-85
2022/10/11 03:43:34;;;;;;;8.30;5.90;;;;;;;10.35;67.98;97097.16;104928;1312;22471;-85
2022/10/11 03:46:06;;;;;;;7.70;5.20;;;;;;;10.35;67.95;97097.60;104889;1308;22960;-84
2022/10/11 03:48:38;;;;;;;8.20;5.80;;;;;;;10.34;68.12;97102.63;104931;1298;22461;-85
2022/10/11 03:51:11;;;;;;;8.40;5.80;;;;;;;10.32;68.24;97101.67;104947;1299;22578;-85
2022/10/11 03:53:43;;;;;;;8.60;5.90;;;;;;;10.35;68.25;97104.80;104942;1307;22488;-85
2022/10/11 03:56:14;;;;;;;8.10;5.20;;;;;;;10.39;68.19;97103.63;104900;1285;22517;-85
2022/10/11 03:58:45;;;;;;;9.70;6.40;;;;;;;10.46;68.14;97101.37;104925;1308;23222;-85
2022/10/11 04:01:16;;;;;;;5.90;4.80;;;;;;;10.57;68.00;97106.41;104957;1310;22476;-85
2022/10/11 04:03:47;;;;;;;8.70;5.30;;;;;;;10.62;67.77;97104.49;104948;1307;22487;-85
2022/10/11 04:06:18;;;;;;;7.60;5.00;;;;;;;10.72;67.53;97108.48;104897;1297;22472;-85
2022/10/11 04:08:50;;;;;;;7.50;5.50;;;;;;;10.76;67.35;97104.70;104909;1297;22482;-85
2022/10/11 04:11:21;;;;;;;9.00;5.70;;;;;;;10.79;67.19;97109.09;104955;1307;22472;-85
2022/10/11 04:13:52;;;;;;;7.60;5.70;;;;;;;10.82;67.29;97109.30;104960;1307;24286;-85
2022/10/11 04:16:23;;;;;;;8.50;5.80;;;;;;;10.84;67.21;97111.21;104860;1307;26310;-85
2022/10/11 04:18:54;;;;;;;9.30;6.10;;;;;;;10.87;67.21;97109.73;104935;1297;22513;-85
2022/10/11 04:21:25;;;;;;;7.30;5.10;;;;;;;10.89;67.02;97110.73;104926;1310;22489;-85
2022/10/11 04:23:57;;;;;;;6.30;5.50;;;;;;;10.90;66.95;97116.88;104914;1298;22600;-85
2022/10/11 04:26:29;;;;;;;8.80;5.90;;;;;;;10.89;66.87;97113.65;104887;1307;22672;-85
2022/10/11 04:29:00;;;;;;;7.50;5.70;;;;;;;10.89;66.84;97118.48;104933;1307;24272;-85
2022/10/11 04:31:31;;;;;;;7.80;5.70;;;;;;;10.89;66.82;97120.55;104938;1307;22535;-85
2022/10/11 04:34:02;;;;;;;7.30;5.60;;;;;;;10.89;66.79;97116.67;104950;1302;22585;-85
2022/10/11 04:36:37;;;;;;;8.60;6.10;;;;;;;10.90;66.75;97118.00;104867;1307;29809;-85
2022/10/11 04:39:09;;;;;;;9.30;6.00;;;;;;;10.90;66.83;97119.59;104918;1294;22482;-85
2022/10/11 04:41:40;;;;;;;7.50;5.50;;;;;;;10.90;66.79;97122.92;104950;1307;22482;-85
2022/10/11 04:44:11;;;;;;;8.00;6.20;;;;;;;10.91;66.75;97122.61;104941;1307;22473;-85
2022/10/11 04:46:42;;;;;;;8.80;6.10;;;;;;;10.93;66.76;97124.20;104880;1307;22505;-85
2022/10/11 04:49:13;;;;;;;8.40;6.30;;;;;;;10.95;66.81;97123.29;105185;1303;25388;-85
2022/10/11 04:51:44;;;;;;;10.60;6.40;;;;;;;10.95;66.94;97127.21;105180;1295;22470;-85
2022/10/11 04:54:16;;;;;;;9.30;5.90;;;;;;;10.93;66.98;97128.49;105153;1304;24400;-85
2022/10/11 04:56:47;;;;;;;6.90;5.60;;;;;;;10.94;66.79;97128.91;105093;1291;25426;-85
2022/10/11 04:59:18;;;;;;;8.00;6.20;;;;;;;10.96;66.95;97127.48;105173;1292;22464;-85
2022/10/11 05:01:49;;;;;;;8.00;5.90;;;;;;;10.98;67.03;97128.12;105182;1290;22459;-85
2022/10/11 05:04:20;;;;;;;8.10;5.60;;;;;;;10.98;66.98;97129.92;105176;1298;22537;-85
2022/10/11 05:06:51;;;;;;;9.30;6.20;;;;;;;10.98;66.93;97128.45;105113;1303;22470;-85
2022/10/11 05:09:23;;;;;;;8.20;5.30;;;;;;;10.99;66.86;97133.44;105174;1303;22473;-85
2022/10/11 05:11:54;;;;;;;9.40;6.00;;;;;;;11.02;66.73;97133.31;105201;1289;24330;-84
2022/10/11 05:14:25;;;;;;;10.10;6.30;;;;;;;11.05;66.61;97142.23;105160;1303;22467;-84
2022/10/11 05:16:56;;;;;;;10.80;6.80;;;;;;;11.09;66.63;97140.14;105122;1298;33830;-85
2022/10/11 05:19:30;;;;;;;7.40;5.80;;;;;;;11.11;66.54;97145.13;105089;1306;22471;-85
2022/10/11 05:22:03;;;;;;;9.40;6.00;;;;;;;11.12;66.50;97140.83;105135;1284;23162;-85
2022/10/11 05:24:35;;;;;;;9.60;6.30;;;;;;;11.16;66.67;97143.91;105081;1304;22921;-84
2022/10/11 05:27:06;;;;;;;9.70;6.00;;;;;;;11.20;66.64;97146.44;105135;1306;24263;-85
2022/10/11 05:29:37;;;;;;;8.70;5.20;;;;;;;11.26;66.58;97151.10;105150;1306;22668;-85
2022/10/11 05:32:09;;;;;;;8.10;5.90;;;;;;;11.24;66.70;97154.27;105135;1289;22478;-85
2022/10/11 05:34:40;;;;;;;7.20;5.60;;;;;;;11.18;66.74;97154.35;105048;1305;24690;-85
2022/10/11 05:37:11;;;;;;;9.10;6.30;;;;;;;11.18;66.92;97160.46;105112;1306;22501;-85
2022/10/11 05:39:42;;;;;;;8.60;6.50;;;;;;;11.17;67.20;97164.77;105143;1298;22526;-85
2022/10/11 05:42:13;;;;;;;8.70;5.60;;;;;;;11.17;67.27;97168.11;105103;1305;22944;-85
2022/10/11 05:44:46;;;;;;;9.00;6.70;;;;;;;11.18;67.49;97170.86;105101;1284;22478;-85
2022/10/11 05:47:17;;;;;;;8.50;5.60;;;;;;;11.19;67.56;97173.77;105190;1304;22511;-85
2022/10/11 05:49:48;;;;;;;7.90;6.40;;;;;;;11.18;67.92;97178.88;105151;1303;24452;-85
2022/10/11 05:52:20;;;;;;;7.40;5.90;;;;;;;11.16;68.19;97181.95;105145;1301;22466;-85
2022/10/11 05:54:51;;;;;;;9.50;6.10;;;;;;;11.14;68.43;97183.40;105176;1303;25367;-85
2022/10/11 05:57:22;;;;;;;8.80;6.50;;;;;;;11.13;68.76;97185.64;105153;1294;22461;-85
2022/10/11 05:59:53;;;;;;;8.10;6.40;;;;;;;11.14;69.14;97188.97;105171;1288;22462;-85
2022/10/11 06:02:24;;;;;;;7.70;6.40;;;;;;;11.14;69.39;97191.95;105170;1303;22466;-85
2022/10/11 06:04:55;;;;;;;8.80;6.40;;;;;;;11.11;69.66;97191.09;103452;1294;2276588;-85
2022/10/11 06:07:27;;;;;;;9.50;6.50;;;;;;;11.09;70.25;97194.85;105158;1304;22506;-85
2022/10/11 06:09:58;;;;;;;11.90;7.50;;;;;;;11.06;70.43;97196.66;105173;1296;22468;-84
2022/10/11 06:12:30;;;;;;;11.00;7.60;;;;;;;11.08;71.28;97199.36;105170;1302;22536;-84
2022/10/11 06:15:02;;;;;;;8.60;7.10;;;;;;;11.08;71.98;97205.73;105128;1303;22964;-85
2022/10/11 06:17:33;;;;;;;10.40;6.30;;;;;;;11.08;71.87;97211.09;105150;1282;22465;-84
2022/10/11 06:20:06;;;;;;;9.10;6.90;;;;;;;11.12;71.27;97215.29;105192;1303;22474;-85
2022/10/11 06:22:37;;;;;;;9.50;6.40;;;;;;;11.18;70.80;97216.83;105225;1296;22477;-84
2022/10/11 06:25:11;;;;;;;9.40;6.90;;;;;;;11.24;70.77;97217.98;105162;1303;22480;-85
2022/10/11 06:27:42;;;;;;;9.40;6.80;;;;;;;11.26;70.33;97224.42;105152;1304;24399;-85
2022/10/11 06:30:14;;;;;;;9.70;6.10;;;;;;;11.26;70.27;97226.06;105159;1289;23171;-85
2022/10/11 06:32:46;;;;;;;8.50;6.90;;;;;;;11.24;70.19;97230.35;105223;1289;22494;-85
2022/10/11 06:35:17;;;;;;;8.60;5.90;;;;;;;11.23;70.25;97232.79;105136;1303;22459;-85
2022/10/11 06:37:48;;;;;;;15.00;7.30;;;;;;;11.24;70.37;97233.27;105150;1303;22475;-85
2022/10/11 06:40:22;;;;;;;9.20;6.80;;;;;;;11.26;70.57;97235.98;105211;1303;22492;-85
2022/10/11 06:42:53;;;;;;;9.80;6.10;;;;;;;11.25;70.58;97237.45;105188;1298;22495;-84
2022/10/11 06:45:24;;;;;;;10.00;6.40;;;;;;;11.21;70.47;97241.88;105152;1303;22478;-85
2022/10/11 06:47:55;;;;;;;9.10;6.40;;;;;;;11.21;70.74;97244.15;105180;1296;22474;-84
2022/10/11 06:50:26;;;;;;;10.50;6.70;;;;;;;11.21;70.72;97243.63;105187;1304;25329;-84
2022/10/11 06:53:00;;;;;;;9.70;7.40;;;;;;;11.23;70.82;97249.30;105170;1303;22484;-84
2022/10/11 06:55:31;;;;;;;8.70;6.90;;;;;;;11.24;70.84;97253.86;105157;1303;22473;-84
2022/10/11 06:58:02;;;;;;;8.60;6.90;;;;;;;11.24;71.30;97256.89;105177;1295;25254;-84
2022/10/11 07:00:33;;;;;;;8.20;6.70;;;;;;;11.19;71.88;97259.77;105159;1297;22452;-84
2022/10/11 07:03:04;;;;;;;10.90;7.90;;;;;;;11.11;72.61;97260.45;105177;1294;25430;-84
2022/10/11 07:05:38;;;;;;;9.80;7.00;;;;;;;11.00;73.71;97260.08;105162;1303;24544;-83
2022/10/11 07:08:13;;;;;;;10.50;6.80;;;;;;;10.88;74.56;97262.20;105168;1294;25438;-83
2022/10/11 07:10:44;;;;;;;11.90;7.80;;;;;;;10.78;75.51;97259.63;105179;1303;24409;-83
2022/10/11 07:13:15;;;;;;;10.70;8.20;;;;;;;10.72;76.67;97264.98;105145;1303;22463;-83
2022/10/11 07:15:46;;;;;;;9.90;8.10;;;;;;;10.67;77.75;97265.17;105149;1303;23929;-83
2022/10/11 07:18:18;;;;;;;10.70;8.50;;;;;;;10.63;78.58;97271.05;105193;1303;22490;-83
2022/10/11 07:20:49;;;;;;;12.50;9.00;;;;;;;10.63;79.44;97275.09;105219;1291;22482;-83
2022/10/11 07:23:21;;;;;;;11.90;9.30;;;;;;;10.61;80.05;97281.30;105201;1304;24340;-83
2022/10/11 07:25:53;;;;;;;14.10;8.60;;;;;;;10.60;80.85;97284.05;105129;1294;23758;-83
2022/10/11 07:28:27;;;;;;;13.10;9.80;;;;;;;10.60;81.46;97286.65;105190;1303;22484;-83
2022/10/11 07:30:59;;;;;;;12.30;7.70;;;;;;;10.62;82.08;97289.73;105173;1289;22453;-84
2022/10/11 07:33:30;;;;;;;9.70;7.60;;;;;;;10.59;81.91;97292.80;105157;1299;22458;-83
2022/10/11 07:36:01;;;;;;;11.90;8.30;;;;;;;10.59;82.02;97292.58;105143;1288;22462;-83
2022/10/11 07:38:33;;;;;;;10.10;7.40;;;;;;;10.60;82.31;97294.45;105172;1303;22667;-84
2022/10/11 07:41:06;;;;;;;10.10;7.80;;;;;;;10.63;82.31;97300.17;105173;1289;22470;-83
2022/10/11 07:43:37;;;;;;;9.50;7.70;;;;;;;10.70;82.61;97305.86;105216;1284;22460;-83
2022/10/11 07:46:09;;;;;;;10.40;7.70;;;;;;;10.76;82.88;97303.08;105095;1282;25559;-84
2022/10/11 07:48:41;;;;;;;12.40;7.80;;;;;;;10.83;82.81;97302.98;105179;1297;22480;-84
2022/10/11 07:51:14;;;;;;;10.90;8.10;;;;;;;10.91;82.88;97306.38;105174;1289;24122;-84
2022/10/11 07:53:47;;;;;;;10.20;8.10;;;;;;;10.99;82.82;97312.98;105181;1303;22502;-83
2022/10/11 07:56:26;;;;;;;11.30;7.90;;;;;;;11.07;83.20;97307.68;105121;1295;22462;-84
2022/10/11 07:59:00;;;;;;;12.90;8.80;;;;;;;11.15;83.45;97309.77;105162;1289;22497;-84
2022/10/11 08:01:32;;;;;;;10.50;9.10;;;;;;;11.25;83.68;97307.01;105181;1303;22469;-84
2022/10/11 08:04:03;;;;;;;11.70;9.10;;;;;;;11.33;83.91;97312.75;105176;1303;22512;-84
2022/10/11 08:06:35;;;;;;;9.60;8.20;;;;;;;11.42;84.35;97311.27;105137;1286;22477;-84
2022/10/11 08:09:06;;;;;;;13.80;9.40;;;;;;;11.50;84.50;97310.52;105174;1303;22622;-84
2022/10/11 08:11:39;;;;;;;11.70;9.00;;;;;;;11.59;85.00;97312.90;105156;1295;25216;-84
2022/10/11 08:14:10;;;;;;;13.90;11.80;;;;;;;11.69;85.32;97311.98;105177;1303;22593;-84
2022/10/11 08:16:42;;;;;;;18.50;13.70;;;;;;;11.79;85.48;97305.39;105153;1291;22458;-84
2022/10/11 08:19:13;;;;;;;14.20;10.80;;;;;;;11.93;85.35;97306.66;105200;1282;25349;-84
2022/10/11 08:21:44;;;;;;;13.10;10.10;;;;;;;12.05;85.03;97307.59;105172;1303;22563;-84
2022/10/11 08:24:19;;;;;;;13.90;10.60;;;;;;;12.13;84.69;97311.40;105240;1303;24288;-84
2022/10/11 08:26:52;;;;;;;15.00;10.60;;;;;;;12.17;84.87;97314.41;105270;1291;22507;-84
2022/10/11 08:29:23;;;;;;;15.10;11.20;;;;;;;12.19;85.14;97318.02;105304;1304;22519;-84
2022/10/11 08:31:54;;;;;;;13.30;9.60;;;;;;;12.22;85.02;97320.13;105214;1303;22599;-84
2022/10/11 08:34:25;;;;;;;12.70;8.60;;;;;;;12.25;84.31;97320.19;105191;1296;22470;-84
2022/10/11 08:36:56;;;;;;;12.10;8.50;;;;;;;12.29;84.45;97322.83;105107;1306;30935;-84
2022/10/11 08:39:27;;;;;;;10.40;8.00;;;;;;;12.28;84.54;97328.36;105154;1296;22471;-84
2022/10/11 08:42:03;;;;;;;11.40;7.50;;;;;;;12.29;84.59;97332.19;105122;1305;24278;-84
2022/10/11 08:44:42;;;;;;;10.90;6.50;;;;;;;12.29;83.92;97332.56;105045;1297;25087;-84
2022/10/11 08:47:20;;;;;;;10.80;6.90;;;;;;;12.33;83.37;97331.63;105216;1303;22467;-84
2022/10/11 08:49:52;;;;;;;10.50;7.50;;;;;;;12.36;82.82;97336.35;105201;1289;22468;-84
2022/10/11 08:52:27;;;;;;;9.60;6.60;;;;;;;12.37;82.31;97334.75;105153;1303;22560;-84
2022/10/11 08:55:04;;;;;;;9.60;6.90;;;;;;;12.36;81.90;97333.32;105143;1303;25863;-84
2022/10/11 08:57:39;;;;;;;9.20;7.50;;;;;;;12.38;81.98;97331.03;105178;1289;24477;-85
2022/10/11 09:00:20;;;;;;;11.70;8.00;;;;;;;12.39;82.62;97333.27;105171;1303;22451;-85
2022/10/11 09:02:59;;;;;;;10.90;8.20;;;;;;;12.37;83.08;97335.70;105172;1295;22517;-84
2022/10/11 09:05:35;;;;;;;10.60;7.30;;;;;;;12.37;83.22;97335.50;105101;1291;23151;-85
2022/10/11 09:08:10;;;;;;;13.00;8.20;;;;;;;12.37;83.14;97336.66;105134;1282;22575;-85
2022/10/11 09:10:57;;;;;;;11.90;7.90;;;;;;;12.38;82.68;97336.08;105182;1294;22501;-85
2022/10/11 09:13:51;;;;;;;9.90;8.20;;;;;;;12.38;82.82;97336.23;105182;1291;22595;-85
2022/10/11 09:16:35;;;;;;;11.50;8.80;;;;;;;12.40;82.64;97333.80;105122;1291;25169;-85
2022/10/11 09:19:28;;;;;;;11.90;9.00;;;;;;;12.44;82.86;97334.26;105117;1298;22466;-85
2022/10/11 09:22:13;;;;;;;12.60;9.70;;;;;;;12.48;82.68;97337.48;105127;1290;22539;-85
2022/10/11 09:25:13;;;;;;;12.90;9.50;;;;;;;12.53;82.97;97342.30;105095;1306;24318;-84
2022/10/11 09:27:53;;;;;;;11.80;9.30;;;;;;;12.56;82.72;97337.77;105212;1303;24337;-84
2022/10/11 09:30:24;;;;;;;11.60;9.00;;;;;;;12.61;82.69;97341.90;105182;1285;23803;-85
2022/10/11 09:33:03;;;;;;;12.30;9.80;;;;;;;12.67;82.68;97338.38;105215;1294;25466;-85
2022/10/11 09:35:39;;;;;;;10.90;8.00;;;;;;;12.72;82.99;97336.10;105183;1303;22472;-85
2022/10/11 09:38:18;;;;;;;10.70;7.80;;;;;;;12.79;82.76;97337.55;105193;1285;25503;-85
2022/10/11 09:41:00;;;;;;;9.00;7.70;;;;;;;12.86;82.56;97338.11;105185;1280;25218;-85
2022/10/11 09:43:32;;;;;;;12.10;6.90;;;;;;;12.90;82.15;97336.86;105193;1289;22473;-85
2022/10/11 09:46:03;;;;;;;8.50;7.00;;;;;;;12.89;81.60;97337.39;105082;1284;25209;-85
2022/10/11 09:48:41;;;;;;;9.50;6.80;;;;;;;12.88;81.62;97340.97;105141;1289;22473;-85
2022/10/11 09:51:20;;;;;;;8.80;7.00;;;;;;;12.93;81.63;97337.42;105170;1304;22595;-84
2022/10/11 09:54:03;;;;;;;11.30;7.10;;;;;;;12.99;81.30;97336.92;105126;1298;22484;-85
2022/10/11 09:56:43;;;;;;;13.10;7.80;;;;;;;13.07;81.40;97338.40;105069;1305;26115;-85
2022/10/11 09:59:30;;;;;;;8.10;6.70;;;;;;;13.15;81.36;97336.98;105088;1291;22476;-85
2022/10/11 10:02:21;;;;;;;10.30;7.00;;;;;;;13.17;81.03;97336.02;105074;1298;22466;-85
2022/10/11 10:05:15;;;;;;;12.20;7.40;;;;;;;13.21;80.59;97341.48;105092;1305;25260;-84
2022/10/11 10:08:01;;;;;;;10.00;7.70;;;;;;;13.26;80.64;97351.26;105094;1306;22465;-85
2022/10/11 10:10:41;;;;;;;8.90;7.40;;;;;;;13.25;80.18;97348.23;105107;1303;24332;-85
2022/10/11 10:13:23;;;;;;;10.80;7.70;;;;;;;13.19;79.90;97344.80;105114;1306;22635;-85
2022/10/11 10:15:58;;;;;;;8.50;6.60;;;;;;;13.17;80.10;97340.75;105125;1303;24320;-85
2022/10/11 10:18:34;;;;;;;10.40;7.90;;;;;;;13.18;80.01;97346.82;105209;1283;23607;-85
2022/10/11 10:21:10;;;;;;;13.10;8.30;;;;;;;13.18;80.25;97350.08;105191;1303;22465;-85
2022/10/11 10:23:43;;;;;;;8.70;6.90;;;;;;;13.22;80.21;97349.73;105212;1303;22486;-85
2022/10/11 10:26:17;;;;;;;9.40;7.90;;;;;;;13.25;79.76;97351.02;105094;1303;25259;-85
2022/10/11 10:29:05;;;;;;;10.90;7.60;;;;;;;13.31;79.96;97349.14;105134;1304;22471;-85
2022/10/11 10:31:50;;;;;;;11.10;8.10;;;;;;;13.33;79.67;97352.86;105075;1284;22469;-85
2022/10/11 10:34:25;;;;;;;10.80;7.90;;;;;;;13.32;79.68;97352.48;105078;1303;22486;-86
2022/10/11 10:37:00;;;;;;;11.50;7.80;;;;;;;13.38;79.93;97351.23;105125;1281;22472;-86
2022/10/11 10:39:39;;;;;;;9.10;7.60;;;;;;;13.49;80.11;97352.64;105213;1290;22554;-86
2022/10/11 10:42:16;;;;;;;11.40;7.90;;;;;;;13.59;79.83;97351.27;105179;1291;22526;-86
2022/10/11 10:44:52;;;;;;;9.30;7.00;;;;;;;13.68;79.82;97357.55;105192;1293;22523;-86
2022/10/11 10:47:39;;;;;;;10.60;7.40;;;;;;;13.76;79.38;97359.29;105178;1303;23518;-86
2022/10/11 10:50:17;;;;;;;11.80;7.60;;;;;;;13.87;79.24;97356.96;105179;1303;22539;-86
2022/10/11 10:53:00;;;;;;;10.00;7.10;;;;;;;13.98;79.59;97355.73;105192;1302;22540;-85
2022/10/11 10:55:38;;;;;;;9.70;7.20;;;;;;;14.04;79.29;97359.23;105126;1295;28286;-86
2022/10/11 10:58:26;;;;;;;10.90;7.70;;;;;;;14.04;78.65;97355.09;105185;1303;22480;-86
2022/10/11 11:01:02;;;;;;;9.30;7.70;;;;;;;14.07;78.61;97355.27;105196;1282;25386;-85
2022/10/11 11:03:42;;;;;;;10.40;7.30;;;;;;;14.10;78.42;97355.52;105191;1303;22457;-85
2022/10/11 11:06:23;;;;;;;12.40;7.50;;;;;;;14.11;77.75;97350.39;105139;1303;22471;-85
2022/10/11 11:09:07;;;;;;;9.60;7.50;;;;;;;14.10;77.58;97350.72;105189;1303;23302;-85
2022/10/11 11:11:49;;;;;;;8.70;6.90;;;;;;;14.22;77.68;97349.20;105229;1303;22481;-85
2022/10/11 11:14:36;;;;;;;11.00;6.90;;;;;;;14.35;77.47;97351.46;105269;1303;22508;-85
2022/10/11 11:17:19;;;;;;;10.60;7.30;;;;;;;14.45;77.25;97354.98;105069;1303;186450;-86
2022/10/11 11:20:03;;;;;;;13.10;7.50;;;;;;;14.49;76.58;97358.16;105208;1295;24494;-85
2022/10/11 11:22:46;;;;;;;10.90;7.30;;;;;;;14.50;76.67;97358.89;105204;1303;24307;-85
2022/10/11 11:25:35;;;;;;;10.50;7.50;;;;;;;14.59;76.49;97361.46;105154;1281;23228;-85
2022/10/11 11:28:18;;;;;;;11.70;7.00;;;;;;;14.55;75.75;97359.70;105184;1303;22467;-86
2022/10/11 11:30:57;;;;;;;10.00;6.70;;;;;;;14.43;75.75;97360.98;105191;1288;22500;-85
2022/10/11 11:33:41;;;;;;;10.00;7.90;;;;;;;14.37;75.81;97360.04;105191;1303;22469;-86
2022/10/11 11:36:16;;;;;;;10.80;7.80;;;;;;;14.40;76.16;97359.63;105137;1303;24465;-85
2022/10/11 11:38:51;;;;;;;10.90;7.00;;;;;;;14.38;75.60;97362.95;105185;1298;22474;-85
2022/10/11 11:41:26;;;;;;;10.20;7.60;;;;;;;14.36;75.61;97359.73;105171;1303;25298;-86
2022/10/11 11:44:08;;;;;;;10.40;7.10;;;;;;;14.37;75.83;97357.73;105187;1290;22498;-85
2022/10/11 11:46:44;;;;;;;10.90;8.50;;;;;;;14.44;75.57;97355.33;105133;1303;24256;-85
2022/10/11 11:49:25;;;;;;;12.60;8.00;;;;;;;14.50;75.82;97355.10;105189;1287;22467;-84
2022/10/11 11:51:58;;;;;;;10.80;8.00;;;;;;;14.51;75.42;97357.88;105200;1303;22609;-85
2022/10/11 11:54:38;;;;;;;11.60;8.30;;;;;;;14.46;75.60;97353.27;105167;1295;22485;-85
2022/10/11 11:57:24;;;;;;;11.70;8.80;;;;;;;14.47;75.81;97353.67;105128;1298;22488;-85